createdAt,value
2017-05-05T00:01:29.067Z,26.76
2017-05-05T00:03:58.892Z,28.70
2017-05-05T00:06:27.944Z,25.26
2017-05-05T00:08:56.993Z,25.12
2017-05-05T00:11:26.044Z,27.48
2017-05-05T00:13:55.743Z,29.86
2017-05-05T00:16:24.788Z,27.34
2017-05-05T00:18:53.816Z,26.22
2017-05-05T00:21:22.866Z,27.14
2017-05-05T00:23:51.912Z,27.60
2017-05-05T00:26:20.952Z,28.30
2017-05-05T00:28:49.992Z,28.46
2017-05-05T00:31:19.922Z,25.82
2017-05-05T00:33:48.963Z,24.38
2017-05-05T00:36:18.058Z,27.70
2017-05-05T00:38:47.122Z,27.36
2017-05-05T00:41:16.161Z,27.78
2017-05-05T00:43:45.253Z,28.86
2017-05-05T00:46:14.337Z,26.40
2017-05-05T00:48:43.371Z,24.32
2017-05-05T00:51:12.429Z,27.66
2017-05-05T00:53:41.486Z,28.06
2017-05-05T00:56:10.908Z,29.34
2017-05-05T00:58:40.706Z,28.82
2017-05-05T01:01:10.512Z,28.28
2017-05-05T01:03:39.554Z,31.60
2017-05-05T01:06:08.602Z,27.70
2017-05-05T01:08:37.909Z,29.70
2017-05-05T01:11:06.940Z,30.54
2017-05-05T01:13:36.522Z,34.74
2017-05-05T01:16:06.328Z,34.02
2017-05-05T01:18:36.146Z,34.46
2017-05-05T01:21:05.919Z,34.56
2017-05-05T01:23:35.963Z,36.68
2017-05-05T01:26:05.756Z,32.80
2017-05-05T01:28:34.804Z,34.88
2017-05-05T01:31:03.873Z,36.84
2017-05-05T01:33:33.677Z,33.40
2017-05-05T01:36:02.753Z,35.86
2017-05-05T01:38:31.803Z,32.48
2017-05-05T01:41:00.859Z,41.44
2017-05-05T01:43:29.887Z,33.96
2017-05-05T01:45:58.993Z,37.24
2017-05-05T01:48:28.087Z,37.54
2017-05-05T01:50:57.135Z,38.20
2017-05-05T01:53:26.173Z,37.14
2017-05-05T01:55:55.285Z,36.40
2017-05-05T01:58:24.586Z,37.64
2017-05-05T02:00:53.651Z,35.58
2017-05-05T02:03:23.468Z,37.96
2017-05-05T02:05:52.528Z,35.94
2017-05-05T02:08:21.583Z,41.58
2017-05-05T02:10:50.673Z,41.50
2017-05-05T02:13:19.755Z,43.56
2017-05-05T02:15:48.799Z,40.28
2017-05-05T02:18:17.863Z,41.64
2017-05-05T02:20:46.936Z,33.40
2017-05-05T02:23:16.001Z,30.80
2017-05-05T02:25:45.032Z,36.70
2017-05-05T02:28:14.092Z,36.82
2017-05-05T02:30:43.913Z,33.96
2017-05-05T02:33:14.539Z,34.72
2017-05-05T02:35:44.336Z,30.98
2017-05-05T02:38:13.416Z,34.32
2017-05-05T02:40:42.707Z,32.04
2017-05-05T02:43:11.755Z,35.00
2017-05-05T02:45:42.473Z,35.46
2017-05-05T02:48:11.534Z,34.64
2017-05-05T02:50:40.677Z,34.08
2017-05-05T02:53:10.473Z,34.42
2017-05-05T02:55:39.522Z,36.62
2017-05-05T02:58:08.568Z,36.14
2017-05-05T03:00:38.411Z,34.22
2017-05-05T03:03:07.457Z,32.62
2017-05-05T03:05:36.504Z,33.14
2017-05-05T03:08:05.549Z,36.98
2017-05-05T03:10:34.601Z,33.04
2017-05-05T03:13:03.673Z,34.12
2017-05-05T03:15:33.469Z,37.94
2017-05-05T03:18:03.316Z,31.02
2017-05-05T03:20:32.354Z,30.28
2017-05-05T03:23:01.409Z,33.60
2017-05-05T03:25:30.456Z,29.48
2017-05-05T03:27:59.492Z,31.84
2017-05-05T03:30:28.546Z,30.72
2017-05-05T03:32:57.579Z,39.72
2017-05-05T03:35:26.637Z,29.22
2017-05-05T03:37:55.676Z,27.72
2017-05-05T03:40:24.754Z,30.50
2017-05-05T03:42:53.797Z,29.56
2017-05-05T03:45:22.846Z,23.78
2017-05-05T03:47:51.893Z,29.22
2017-05-05T03:50:20.969Z,29.82
2017-05-05T03:52:50.023Z,30.52
2017-05-05T03:55:19.837Z,32.26
2017-05-05T03:57:49.657Z,31.62
2017-05-05T04:00:19.648Z,35.24
2017-05-05T04:02:48.754Z,26.72
2017-05-05T04:05:18.553Z,28.66
2017-05-05T04:07:47.601Z,31.20
2017-05-05T04:10:16.660Z,25.52
2017-05-05T04:12:46.453Z,28.08
2017-05-05T04:15:15.513Z,25.92
2017-05-05T04:17:44.616Z,27.84
2017-05-05T04:20:13.660Z,27.34
2017-05-05T04:22:43.444Z,22.74
2017-05-05T04:25:12.507Z,27.56
2017-05-05T04:27:41.577Z,27.02
2017-05-05T04:30:10.633Z,25.40
2017-05-05T04:32:39.765Z,24.08
2017-05-05T04:35:08.854Z,22.22
2017-05-05T04:37:37.894Z,22.76
2017-05-05T04:40:06.957Z,24.82
2017-05-05T04:42:35.999Z,23.64
2017-05-05T04:45:05.067Z,23.66
2017-05-05T04:47:34.156Z,27.18
2017-05-05T04:50:03.193Z,23.10
2017-05-05T04:52:32.241Z,27.08
2017-05-05T04:55:01.311Z,22.36
2017-05-05T04:57:30.363Z,21.44
2017-05-05T04:59:59.428Z,23.54
2017-05-05T05:02:28.465Z,20.56
2017-05-05T05:04:57.496Z,21.74
2017-05-05T05:07:26.562Z,20.72
2017-05-05T05:09:55.605Z,25.66
2017-05-05T05:12:24.657Z,24.86
2017-05-05T05:14:54.444Z,22.64
2017-05-05T05:17:23.485Z,27.38
2017-05-05T05:19:52.534Z,22.46
2017-05-05T05:22:21.580Z,21.58
2017-05-05T05:24:51.640Z,22.18
2017-05-05T05:27:20.685Z,24.12
2017-05-05T05:29:49.745Z,21.42
2017-05-05T05:32:18.789Z,22.20
2017-05-05T05:34:47.849Z,19.72
2017-05-05T05:37:18.061Z,21.48
2017-05-05T05:39:47.152Z,22.76
2017-05-05T05:42:16.200Z,22.38
2017-05-05T05:44:48.741Z,21.16
2017-05-05T05:47:17.841Z,19.92
2017-05-05T05:49:47.629Z,22.28
2017-05-05T05:52:16.876Z,23.16
2017-05-05T05:54:45.925Z,18.70
2017-05-05T05:57:15.213Z,17.02
2017-05-05T05:59:44.298Z,17.76
2017-05-05T06:02:13.883Z,20.60
2017-05-05T06:04:42.949Z,18.88
2017-05-05T06:07:12.737Z,20.34
2017-05-05T06:09:41.780Z,16.94
2017-05-05T06:12:10.822Z,17.48
2017-05-05T06:14:39.867Z,18.12
2017-05-05T06:17:08.917Z,19.44
2017-05-05T06:19:37.978Z,16.36
2017-05-05T06:22:07.015Z,18.30
2017-05-05T06:24:36.071Z,16.82
2017-05-05T06:27:05.126Z,17.64
2017-05-05T06:29:34.197Z,17.44
2017-05-05T06:32:03.572Z,21.72
2017-05-05T06:34:32.641Z,16.46
2017-05-05T06:37:01.756Z,17.26
2017-05-05T06:39:31.004Z,21.40
2017-05-05T06:42:00.785Z,18.98
2017-05-05T06:44:29.824Z,17.54
2017-05-05T06:46:59.300Z,16.88
2017-05-05T06:49:28.332Z,15.46
2017-05-05T06:51:57.377Z,18.16
2017-05-05T06:54:26.420Z,16.74
2017-05-05T06:56:55.499Z,18.36
2017-05-05T06:59:25.368Z,21.08
2017-05-05T07:01:54.418Z,15.46
2017-05-05T07:04:23.468Z,17.18
2017-05-05T07:06:52.544Z,16.64
2017-05-05T07:09:21.604Z,15.68
2017-05-05T07:11:50.665Z,14.98
2017-05-05T07:14:19.745Z,15.30
2017-05-05T07:16:49.151Z,14.54
2017-05-05T07:19:18.195Z,13.78
2017-05-05T07:21:47.274Z,13.40
2017-05-05T07:24:17.059Z,12.60
2017-05-05T07:26:46.105Z,13.18
2017-05-05T07:29:15.324Z,13.90
2017-05-05T07:31:44.377Z,12.84
2017-05-05T07:34:14.174Z,14.16
2017-05-05T07:36:43.997Z,11.90
2017-05-05T07:39:13.792Z,13.02
2017-05-05T07:41:42.848Z,12.40
2017-05-05T07:44:11.912Z,14.48
2017-05-05T07:46:41.002Z,11.72
2017-05-05T07:49:10.058Z,13.00
2017-05-05T07:51:39.756Z,11.30
2017-05-05T07:54:09.594Z,11.60
2017-05-05T07:56:38.656Z,11.04
2017-05-05T07:59:07.723Z,10.40
2017-05-05T08:01:36.797Z,12.18
2017-05-05T08:04:06.654Z,13.32
2017-05-05T08:06:35.697Z,15.06
2017-05-05T08:09:05.508Z,13.20
2017-05-05T08:11:34.655Z,15.44
2017-05-05T08:14:03.699Z,13.28
2017-05-05T08:16:33.496Z,16.56
2017-05-05T08:19:02.555Z,15.44
2017-05-05T08:21:31.608Z,15.34
2017-05-05T08:24:01.407Z,15.72
2017-05-05T08:26:30.451Z,15.44
2017-05-05T08:28:59.501Z,18.54
2017-05-05T08:31:29.320Z,15.82
2017-05-05T08:33:59.146Z,14.74
2017-05-05T08:36:28.968Z,16.18
2017-05-05T08:38:58.101Z,18.58
2017-05-05T08:41:27.156Z,17.22
2017-05-05T08:43:56.210Z,16.92
2017-05-05T08:46:25.248Z,14.94
2017-05-05T08:48:54.365Z,15.84
2017-05-05T08:51:24.149Z,15.80
2017-05-05T08:53:53.192Z,14.10
2017-05-05T08:56:22.266Z,15.66
2017-05-05T08:58:51.313Z,16.68
2017-05-05T09:01:20.452Z,16.08
2017-05-05T09:03:49.517Z,13.98
2017-05-05T09:06:19.361Z,13.56
2017-05-05T09:08:48.405Z,15.84
2017-05-05T09:11:17.494Z,13.14
2017-05-05T09:13:46.549Z,16.14
2017-05-05T09:16:15.616Z,15.30
2017-05-05T09:18:45.426Z,21.60
2017-05-05T09:21:15.492Z,15.64
2017-05-05T09:23:44.533Z,15.64
2017-05-05T09:26:15.065Z,13.78
2017-05-05T09:28:44.983Z,16.06
2017-05-05T09:31:14.787Z,13.68
2017-05-05T09:33:44.604Z,13.26
2017-05-05T09:36:14.417Z,15.82
2017-05-05T09:38:45.105Z,18.58
2017-05-05T09:41:14.436Z,22.76
2017-05-05T09:43:43.478Z,15.96
2017-05-05T09:46:12.568Z,18.58
2017-05-05T09:48:41.655Z,19.32
2017-05-05T09:51:10.763Z,20.96
2017-05-05T09:53:41.614Z,19.94
2017-05-05T09:56:11.026Z,20.20
2017-05-05T09:58:40.072Z,18.66
2017-05-05T10:01:09.864Z,19.52
2017-05-05T10:03:39.152Z,17.70
2017-05-05T10:06:08.201Z,21.80
2017-05-05T10:08:37.239Z,19.72
2017-05-05T10:11:06.300Z,20.70
2017-05-05T10:13:35.913Z,25.58
2017-05-05T10:16:04.966Z,19.86
2017-05-05T10:18:34.797Z,20.60
2017-05-05T10:21:03.837Z,20.26
2017-05-05T10:23:32.904Z,19.66
2017-05-05T10:26:01.952Z,20.68
2017-05-05T10:28:31.005Z,21.20
2017-05-05T10:31:00.045Z,22.52
2017-05-05T10:33:29.094Z,20.60
2017-05-05T10:35:58.129Z,20.68
2017-05-05T10:38:27.192Z,26.02
2017-05-05T10:40:56.292Z,20.56
2017-05-05T10:43:25.360Z,21.16
2017-05-05T10:45:54.653Z,23.32
2017-05-05T10:48:23.713Z,21.96
2017-05-05T10:50:52.775Z,22.16
2017-05-05T10:53:21.817Z,20.84
2017-05-05T10:55:51.617Z,19.76
2017-05-05T10:58:20.663Z,20.18
2017-05-05T11:00:49.715Z,22.48
2017-05-05T11:03:19.753Z,19.44
2017-05-05T11:05:48.796Z,20.74
2017-05-05T11:08:18.186Z,23.08
2017-05-05T11:10:47.260Z,22.28
2017-05-05T11:13:16.329Z,22.50
2017-05-05T11:15:46.110Z,26.30
2017-05-05T11:18:15.174Z,20.74
2017-05-05T11:20:44.246Z,22.78
2017-05-05T11:23:13.312Z,21.80
2017-05-05T11:25:43.145Z,24.72
2017-05-05T11:28:12.201Z,21.46
2017-05-05T11:30:41.245Z,22.14
2017-05-05T11:33:10.289Z,21.22
2017-05-05T11:35:39.329Z,21.28
2017-05-05T11:38:08.379Z,23.90
2017-05-05T11:40:37.436Z,19.66
2017-05-05T11:43:06.516Z,20.78
2017-05-05T11:45:35.573Z,21.04
2017-05-05T11:48:04.633Z,20.84
2017-05-05T11:50:33.681Z,17.40
2017-05-05T11:53:03.494Z,18.62
2017-05-05T11:55:33.305Z,18.30
2017-05-05T11:58:03.111Z,21.66
2017-05-05T12:00:32.920Z,20.28
2017-05-05T12:03:01.968Z,20.50
2017-05-05T12:05:31.021Z,18.64
2017-05-05T12:08:00.804Z,15.88
2017-05-05T12:10:29.864Z,18.52
2017-05-05T12:12:58.980Z,18.08
2017-05-05T12:15:28.354Z,17.32
2017-05-05T12:17:57.416Z,15.44
2017-05-05T12:20:27.457Z,18.26
2017-05-05T12:22:56.513Z,16.52
2017-05-05T12:25:25.871Z,15.96
2017-05-05T12:27:54.913Z,16.88
2017-05-05T12:30:24.016Z,14.52
2017-05-05T12:32:54.601Z,13.70
2017-05-05T12:35:23.698Z,16.28
2017-05-05T12:37:52.769Z,15.52
2017-05-05T12:40:21.847Z,15.82
2017-05-05T12:42:52.459Z,16.26
2017-05-05T12:45:25.745Z,16.68
2017-05-05T12:47:54.818Z,15.20
2017-05-05T12:50:23.871Z,15.56
2017-05-05T12:52:52.953Z,14.40
2017-05-05T12:55:23.688Z,16.40
2017-05-05T12:57:53.600Z,17.28
2017-05-05T13:00:23.397Z,15.56
2017-05-05T13:02:52.454Z,17.22
2017-05-05T13:05:22.253Z,15.14
2017-05-05T13:07:51.320Z,15.28
2017-05-05T13:10:21.105Z,16.50
2017-05-05T13:12:53.963Z,16.44
2017-05-05T13:15:27.722Z,16.88
2017-05-05T13:17:57.505Z,17.00
2017-05-05T13:20:27.107Z,20.64
2017-05-05T13:22:59.666Z,19.84
2017-05-05T13:25:31.263Z,17.36
2017-05-05T13:28:04.540Z,19.14
2017-05-05T13:30:33.623Z,20.26
2017-05-05T13:33:05.134Z,20.18
2017-05-05T13:35:36.881Z,20.36
2017-05-05T13:38:08.472Z,19.14
2017-05-05T13:40:38.205Z,18.98
2017-05-05T13:43:09.806Z,21.46
2017-05-05T13:45:39.325Z,20.62
2017-05-05T13:48:11.228Z,19.58
2017-05-05T13:50:40.289Z,26.60
2017-05-05T13:53:09.700Z,18.44
2017-05-05T13:55:39.347Z,16.74
2017-05-05T13:58:08.413Z,19.88
2017-05-05T14:00:37.467Z,17.62
2017-05-05T14:03:06.513Z,18.62
2017-05-05T14:05:35.557Z,18.34
2017-05-05T14:08:04.625Z,18.46
2017-05-05T14:10:34.442Z,16.86
2017-05-05T14:13:04.271Z,15.52
2017-05-05T14:15:33.417Z,16.56
2017-05-05T14:18:03.272Z,17.32
2017-05-05T14:20:33.067Z,15.72
2017-05-05T14:23:02.139Z,16.36
2017-05-05T14:25:31.379Z,15.50
2017-05-05T14:28:01.230Z,17.02
2017-05-05T14:30:30.292Z,15.68
2017-05-05T14:33:00.093Z,15.24
2017-05-05T14:35:29.928Z,14.20
2017-05-05T14:37:58.985Z,14.22
2017-05-05T14:40:28.815Z,15.08
2017-05-05T14:42:58.622Z,15.14
2017-05-05T14:45:27.689Z,12.90
2017-05-05T14:47:56.777Z,14.08
2017-05-05T14:50:25.835Z,13.20
2017-05-05T14:52:54.906Z,12.52
2017-05-05T14:55:24.718Z,13.34
2017-05-05T14:57:54.548Z,13.48
2017-05-05T15:00:24.657Z,13.98
2017-05-05T15:02:54.449Z,13.58
2017-05-05T15:05:23.547Z,13.26
2017-05-05T15:07:52.694Z,15.00
2017-05-05T15:10:21.737Z,16.24
2017-05-05T15:12:50.787Z,14.42
2017-05-05T15:15:19.866Z,16.78
2017-05-05T15:17:48.944Z,14.38
2017-05-05T15:20:18.746Z,15.86
2017-05-05T15:22:47.800Z,17.30
2017-05-05T15:25:16.862Z,15.54
2017-05-05T15:27:45.986Z,16.14
2017-05-05T15:30:15.102Z,15.28
2017-05-05T15:32:44.152Z,16.26
2017-05-05T15:35:13.653Z,15.30
2017-05-05T15:37:42.760Z,15.60
2017-05-05T15:40:11.831Z,17.02
2017-05-05T15:42:41.680Z,16.56
2017-05-05T15:45:10.750Z,15.58
2017-05-05T15:47:39.833Z,14.04
2017-05-05T15:50:09.704Z,17.64
2017-05-05T15:52:38.767Z,15.44
2017-05-05T15:55:07.879Z,19.68
2017-05-05T15:57:36.953Z,17.46
2017-05-05T16:00:05.996Z,16.10
2017-05-05T16:02:35.869Z,16.52
2017-05-05T16:05:05.517Z,15.42
2017-05-05T16:07:34.638Z,18.46
2017-05-05T16:10:04.542Z,17.30
2017-05-05T16:12:33.674Z,17.82
2017-05-05T16:15:02.770Z,17.30
2017-05-05T16:17:31.832Z,18.98
2017-05-05T16:20:00.911Z,19.64
2017-05-05T16:22:30.011Z,21.02
2017-05-05T16:24:59.067Z,18.74
2017-05-05T16:27:28.195Z,19.24
2017-05-05T16:29:57.335Z,24.42
2017-05-05T16:32:27.125Z,22.48
2017-05-05T16:34:56.200Z,19.88
2017-05-05T16:37:25.429Z,20.24
2017-05-05T16:39:55.274Z,17.98
2017-05-05T16:42:24.324Z,17.62
2017-05-05T16:44:53.723Z,16.84
2017-05-05T16:47:22.796Z,17.66
2017-05-05T16:49:52.235Z,20.60
2017-05-05T16:52:22.078Z,18.08
2017-05-05T16:54:51.128Z,17.52
2017-05-05T16:57:20.183Z,16.14
2017-05-05T16:59:49.240Z,15.62
2017-05-05T17:02:19.385Z,16.66
2017-05-05T17:04:48.491Z,14.74
2017-05-05T17:07:17.581Z,16.52
2017-05-05T17:09:46.653Z,17.46
2017-05-05T17:12:16.451Z,16.02
2017-05-05T17:14:45.697Z,18.06
2017-05-05T17:17:14.770Z,16.66
2017-05-05T17:19:43.967Z,15.88
2017-05-05T17:22:13.048Z,17.22
2017-05-05T17:24:42.858Z,15.56
2017-05-05T17:27:12.673Z,17.94
2017-05-05T17:29:42.523Z,16.22
2017-05-05T17:32:11.568Z,17.00
2017-05-05T17:34:40.638Z,16.54
2017-05-05T17:37:09.718Z,16.40
2017-05-05T17:39:38.773Z,16.06
2017-05-05T17:42:08.595Z,14.86
2017-05-05T17:44:37.708Z,17.38
2017-05-05T17:47:07.026Z,17.28
2017-05-05T17:49:36.117Z,20.82
2017-05-05T17:52:05.193Z,18.26
2017-05-05T17:54:34.271Z,17.74
2017-05-05T17:57:05.002Z,18.16
2017-05-05T17:59:35.116Z,17.50
2017-05-05T18:02:04.949Z,18.76
2017-05-05T18:04:34.025Z,17.90
2017-05-05T18:07:03.849Z,18.72
2017-05-05T18:09:33.910Z,18.50
2017-05-05T18:12:03.428Z,18.66
2017-05-05T18:14:32.482Z,20.06
2017-05-05T18:17:02.266Z,20.28
2017-05-05T18:19:32.780Z,19.42
2017-05-05T18:22:02.978Z,21.50
2017-05-05T18:24:32.069Z,20.16
2017-05-05T18:27:01.975Z,18.54
2017-05-05T18:29:31.055Z,20.20
2017-05-05T18:32:00.133Z,20.36
2017-05-05T18:34:29.240Z,22.40
2017-05-05T18:36:58.363Z,19.90
2017-05-05T18:39:27.437Z,20.00
2017-05-05T18:41:56.535Z,25.16
2017-05-05T18:44:25.631Z,20.06
2017-05-05T18:46:54.668Z,22.46
2017-05-05T18:49:23.744Z,21.04
2017-05-05T18:51:52.892Z,20.26
2017-05-05T18:54:22.042Z,25.58
2017-05-05T18:56:51.672Z,22.38
2017-05-05T18:59:21.727Z,23.88
2017-05-05T19:01:51.062Z,21.38
2017-05-05T19:04:20.122Z,22.84
2017-05-05T19:06:49.228Z,21.10
2017-05-05T19:09:18.307Z,21.90
2017-05-05T19:11:47.652Z,22.94
2017-05-05T19:14:16.771Z,47.90
2017-05-05T19:16:45.842Z,25.58
2017-05-05T19:19:14.916Z,25.94
2017-05-05T19:21:43.975Z,26.28
2017-05-05T19:24:13.801Z,28.42
2017-05-05T19:26:42.873Z,24.86
2017-05-05T19:29:11.973Z,25.62
2017-05-05T19:31:42.757Z,28.46
2017-05-05T19:34:12.642Z,27.98
2017-05-05T19:36:41.743Z,31.42
2017-05-05T19:39:10.808Z,32.48
2017-05-05T19:41:39.847Z,26.22
2017-05-05T19:44:09.357Z,28.38
2017-05-05T19:46:38.499Z,27.48
2017-05-05T19:49:07.568Z,28.78
2017-05-05T19:51:36.639Z,28.38
2017-05-05T19:54:05.765Z,28.72
2017-05-05T19:56:34.874Z,34.20
2017-05-05T19:59:04.088Z,31.48
2017-05-05T20:01:33.177Z,32.28
2017-05-05T20:04:02.238Z,33.36
2017-05-05T20:06:32.247Z,32.68
2017-05-05T20:09:01.418Z,29.70
2017-05-05T20:11:30.480Z,40.34
2017-05-05T20:13:59.578Z,37.24
2017-05-05T20:16:28.671Z,33.96
2017-05-05T20:18:57.726Z,36.12
2017-05-05T20:21:26.841Z,42.00
2017-05-05T20:23:56.052Z,39.62
2017-05-05T20:26:25.138Z,38.20
2017-05-05T20:28:54.196Z,40.64
2017-05-05T20:31:23.256Z,46.58
2017-05-05T20:33:52.365Z,35.94
2017-05-05T20:36:22.185Z,42.34
2017-05-05T20:38:51.280Z,41.18
2017-05-05T20:41:26.168Z,39.08
2017-05-05T20:43:55.345Z,43.68
2017-05-05T20:46:24.381Z,43.80
2017-05-05T20:48:53.429Z,42.66
2017-05-05T20:51:22.480Z,44.50
2017-05-05T20:53:55.191Z,42.78
2017-05-05T20:56:28.818Z,41.58
2017-05-05T20:59:00.195Z,45.28
2017-05-05T21:01:29.372Z,48.98
2017-05-05T21:03:58.458Z,43.40
2017-05-05T21:06:27.576Z,49.04
2017-05-05T21:08:58.207Z,44.32
2017-05-05T21:11:27.285Z,42.50
2017-05-05T21:13:56.320Z,43.50
2017-05-05T21:16:26.122Z,45.48
2017-05-05T21:18:55.452Z,44.26
2017-05-05T21:21:24.502Z,47.94
2017-05-05T21:23:53.877Z,47.70
2017-05-05T21:26:23.290Z,41.44
2017-05-05T21:28:52.329Z,43.10
2017-05-05T21:31:22.142Z,43.14
2017-05-05T21:33:52.029Z,41.20
2017-05-05T21:36:21.068Z,46.08
2017-05-05T21:38:50.331Z,40.76
2017-05-05T21:41:19.401Z,46.42
2017-05-05T21:43:48.474Z,44.70
2017-05-05T21:46:17.516Z,40.18
2017-05-05T21:48:46.894Z,49.28
2017-05-05T21:51:17.692Z,47.26
2017-05-05T21:53:46.740Z,46.46
2017-05-05T21:56:16.016Z,45.72
2017-05-05T21:58:45.062Z,42.68
2017-05-05T22:01:14.892Z,47.94
2017-05-05T22:03:43.968Z,50.50
2017-05-05T22:06:13.771Z,51.10
2017-05-05T22:08:42.943Z,45.72
2017-05-05T22:11:12.045Z,42.98
2017-05-05T22:13:41.121Z,46.42
2017-05-05T22:16:10.243Z,48.26
2017-05-05T22:18:39.305Z,48.24
2017-05-05T22:21:08.353Z,47.00
2017-05-05T22:23:37.384Z,45.50
2017-05-05T22:26:06.454Z,47.12
2017-05-05T22:28:36.252Z,46.56
2017-05-05T22:31:06.049Z,54.62
2017-05-05T22:33:35.152Z,48.04
2017-05-05T22:36:04.473Z,45.22
2017-05-05T22:38:34.263Z,42.86
2017-05-05T22:41:03.445Z,41.14
2017-05-05T22:43:32.522Z,44.72
2017-05-05T22:46:01.565Z,45.16
2017-05-05T22:48:31.363Z,46.60
2017-05-05T22:51:00.416Z,42.20
2017-05-05T22:53:29.481Z,47.44
2017-05-05T22:55:59.276Z,41.56
2017-05-05T22:58:28.314Z,45.96
2017-05-05T23:00:57.376Z,42.54
2017-05-05T23:03:27.194Z,40.90
2017-05-05T23:05:57.014Z,38.64
2017-05-05T23:08:26.082Z,38.80
2017-05-05T23:10:55.126Z,39.08
2017-05-05T23:13:24.201Z,40.18
2017-05-05T23:15:53.304Z,39.86
2017-05-05T23:18:22.354Z,39.96
2017-05-05T23:20:51.417Z,35.20
2017-05-05T23:23:20.464Z,37.94
2017-05-05T23:25:50.255Z,37.60
2017-05-05T23:28:19.313Z,35.58
2017-05-05T23:30:48.387Z,36.66
2017-05-05T23:33:17.473Z,36.28
2017-05-05T23:35:47.277Z,35.74
2017-05-05T23:38:17.946Z,35.38
2017-05-05T23:40:47.000Z,36.10
2017-05-05T23:43:16.814Z,38.64
2017-05-05T23:45:46.601Z,37.84
2017-05-05T23:48:15.649Z,29.30
2017-05-05T23:50:44.693Z,35.18
2017-05-05T23:53:14.324Z,35.82
2017-05-05T23:55:44.134Z,37.48
2017-05-05T23:58:13.156Z,34.08
